Time;durP1;ratioP1;P1;durP2;ratioP2;P2;SDS_P1;SDS_P2;PMS_P1;PMS_P2;Temp;Humidity;BMP_temperature;BMP_pressure;BME280_temperature;BME280_humidity;BME280_pressure;Samples;Min_cycle;Max_cycle;Signal;HPM_P1;HPM_P2
2023/03/07 00:01:51;;;;;;;32.92;15.00;;;2.90;99.90;;;;;;5084101;28;20699;-59
2023/03/07 00:04:16;;;;;;;32.92;13.23;;;2.90;99.90;;;;;;5083294;28;20036;-59
2023/03/07 00:06:42;;;;;;;29.23;13.10;;;3.00;99.90;;;;;;5081263;28;20083;-60
2023/03/07 00:09:08;;;;;;;32.63;12.48;;;3.00;99.90;;;;;;5075831;28;20028;-58
2023/03/07 00:11:33;;;;;;;25.23;12.02;;;3.00;99.90;;;;;;5079400;28;20597;-60
2023/03/07 00:13:59;;;;;;;27.52;11.50;;;3.00;99.90;;;;;;5085063;28;20067;-59
2023/03/07 00:16:25;;;;;;;24.95;10.45;;;3.10;99.90;;;;;;5073413;28;20048;-59
2023/03/07 00:18:51;;;;;;;27.35;10.48;;;3.10;99.90;;;;;;5064044;28;20075;-59
2023/03/07 00:21:19;;;;;;;21.20;8.43;;;3.20;99.90;;;;;;5064706;28;20068;-59
2023/03/07 00:23:45;;;;;;;13.55;6.00;;;3.20;99.90;;;;;;5063708;28;20153;-58
2023/03/07 00:26:17;;;;;;;13.90;4.75;;;3.20;99.90;;;;;;5063939;28;20647;-58
2023/03/07 00:28:45;;;;;;;12.43;4.47;;;3.20;99.90;;;;;;5063842;28;20037;-59
2023/03/07 00:31:11;;;;;;;15.00;4.32;;;3.10;99.90;;;;;;5064517;28;20056;-59
2023/03/07 00:33:37;;;;;;;13.00;4.75;;;3.10;99.90;;;;;;5062613;28;20036;-58
2023/03/07 00:36:06;;;;;;;16.65;5.07;;;3.10;99.90;;;;;;5064821;28;20160;-58
2023/03/07 00:38:32;;;;;;;12.75;4.40;;;3.10;99.90;;;;;;5062619;28;20547;-59
2023/03/07 00:41:00;;;;;;;14.30;4.68;;;3.10;99.90;;;;;;5064016;28;20150;-60
2023/03/07 00:43:27;;;;;;;14.15;5.57;;;3.20;99.90;;;;;;5063517;28;20113;-60
2023/03/07 00:45:52;;;;;;;11.43;4.82;;;3.20;99.90;;;;;;5063976;28;20040;-57
2023/03/07 00:48:18;;;;;;;14.77;4.40;;;3.10;99.90;;;;;;5063284;28;20506;-58
2023/03/07 00:50:44;;;;;;;15.82;4.88;;;3.10;99.90;;;;;;5072469;28;20047;-60
2023/03/07 00:53:09;;;;;;;11.32;3.80;;;3.10;99.90;;;;;;5083880;28;20032;-57
2023/03/07 00:55:35;;;;;;;15.07;3.25;;;3.10;99.90;;;;;;5074746;28;20055;-59
2023/03/07 00:58:01;;;;;;;9.40;2.90;;;3.10;99.90;;;;;;5061742;28;20494;-59
2023/03/07 01:00:26;;;;;;;9.35;2.53;;;3.10;99.90;;;;;;5065777;28;20407;-59
2023/03/07 01:02:52;;;;;;;9.60;2.30;;;3.00;99.90;;;;;;5084764;28;20371;-58
2023/03/07 01:05:17;;;;;;;9.98;2.95;;;3.00;99.90;;;;;;5073054;28;20149;-60
2023/03/07 01:07:43;;;;;;;11.80;2.40;;;3.00;99.90;;;;;;5084064;28;20047;-59
2023/03/07 01:10:09;;;;;;;10.73;2.40;;;3.00;99.90;;;;;;5077143;28;20041;-59
2023/03/07 01:12:34;;;;;;;9.07;2.38;;;3.00;99.90;;;;;;5063919;28;20043;-59
2023/03/07 01:15:00;;;;;;;8.10;2.38;;;3.00;99.90;;;;;;5063819;28;20109;-58
2023/03/07 01:17:26;;;;;;;11.82;2.30;;;3.00;99.90;;;;;;5062109;28;20040;-59
2023/03/07 01:19:51;;;;;;;12.05;2.10;;;3.00;99.90;;;;;;5063595;28;20139;-57
2023/03/07 01:22:17;;;;;;;11.57;2.33;;;3.00;99.90;;;;;;5062511;28;20079;-59
2023/03/07 01:24:42;;;;;;;15.65;2.42;;;3.10;99.90;;;;;;5061929;28;20108;-59
2023/03/07 01:27:08;;;;;;;10.68;1.88;;;3.10;99.90;;;;;;5062972;28;20102;-59
2023/03/07 01:29:33;;;;;;;10.02;2.33;;;3.10;99.90;;;;;;5063956;28;20059;-59
2023/03/07 01:31:59;;;;;;;10.70;2.75;;;3.10;99.90;;;;;;5063536;28;20047;-60
2023/03/07 01:34:24;;;;;;;7.60;1.95;;;3.10;99.90;;;;;;5063622;28;20539;-59
2023/03/07 01:36:50;;;;;;;14.02;2.55;;;3.10;99.90;;;;;;5063207;28;20159;-60
2023/03/07 01:39:16;;;;;;;8.27;2.10;;;3.10;99.90;;;;;;5068149;28;20040;-59
2023/03/07 01:41:43;;;;;;;15.45;2.15;;;3.10;99.90;;;;;;5065124;28;20589;-59
2023/03/07 01:44:18;;;;;;;13.85;1.70;;;3.10;99.90;;;;;;5063471;28;20083;-60
2023/03/07 01:46:46;;;;;;;11.80;2.30;;;3.10;99.90;;;;;;5063436;28;20115;-59
2023/03/07 01:49:25;;;;;;;18.67;2.28;;;3.10;99.90;;;;;;5063066;28;20049;-60
2023/03/07 01:52:08;;;;;;;16.10;1.98;;;3.20;99.90;;;;;;5064100;28;20044;-60
2023/03/07 01:54:37;;;;;;;7.38;2.58;;;3.20;99.90;;;;;;5063158;28;20044;-59
2023/03/07 01:57:04;;;;;;;7.13;1.80;;;3.20;99.90;;;;;;5064203;28;20133;-59
2023/03/07 01:59:41;;;;;;;14.50;2.30;;;3.20;99.90;;;;;;5067406;28;20109;-59
2023/03/07 02:02:12;;;;;;;17.40;2.08;;;3.20;99.90;;;;;;5068036;28;20037;-60
2023/03/07 02:04:55;;;;;;;17.40;2.53;;;3.20;99.90;;;;;;5066709;28;20068;-60
2023/03/07 02:07:26;;;;;;;11.60;1.80;;;3.20;99.90;;;;;;5067183;28;20036;-60
2023/03/07 02:09:53;;;;;;;10.40;2.28;;;3.20;99.90;;;;;;5064961;28;20037;-59
2023/03/07 02:12:19;;;;;;;12.68;2.00;;;3.10;99.90;;;;;;5065558;28;20044;-59
2023/03/07 02:14:47;;;;;;;13.27;1.92;;;3.10;99.90;;;;;;5066827;28;20033;-59
2023/03/07 02:17:13;;;;;;;16.65;2.00;;;3.10;99.90;;;;;;5066772;28;20043;-59
2023/03/07 02:20:04;;;;;;;10.45;1.50;;;3.00;99.90;;;;;;5066580;28;20506;-60
2023/03/07 02:22:30;;;;;;;9.55;2.08;;;3.00;99.90;;;;;;5067246;28;20094;-60
2023/03/07 02:25:06;;;;;;;12.38;2.30;;;2.90;99.90;;;;;;5068036;28;20045;-59
2023/03/07 02:27:35;;;;;;;15.45;2.83;;;2.90;99.90;;;;;;5086100;28;20652;-59
2023/03/07 02:30:01;;;;;;;10.63;2.10;;;2.90;99.90;;;;;;5084189;28;20047;-59
2023/03/07 02:32:26;;;;;;;13.10;2.08;;;2.80;99.90;;;;;;5066675;28;20064;-59
2023/03/07 02:34:52;;;;;;;17.50;1.85;;;2.80;99.90;;;;;;5067217;28;20741;-58
2023/03/07 02:37:33;;;;;;;13.60;2.80;;;2.80;99.90;;;;;;5086117;28;20620;-60
2023/03/07 02:40:07;;;;;;;9.60;1.92;;;2.80;99.90;;;;;;5078370;28;20036;-60
2023/03/07 02:42:37;;;;;;;22.23;2.77;;;2.80;99.90;;;;;;5065993;28;20418;-59
2023/03/07 02:45:05;;;;;;;11.35;1.83;;;2.80;99.90;;;;;;5066496;28;20289;-58
2023/03/07 02:47:31;;;;;;;14.05;2.40;;;2.80;99.90;;;;;;5064387;28;20075;-62
2023/03/07 02:49:56;;;;;;;11.18;1.95;;;2.80;99.90;;;;;;5066182;28;20529;-59
2023/03/07 02:52:22;;;;;;;14.85;2.20;;;2.90;99.90;;;;;;5082222;28;20470;-59
2023/03/07 02:54:48;;;;;;;15.40;2.10;;;2.90;99.90;;;;;;5066327;28;20119;-59
2023/03/07 02:57:14;;;;;;;21.55;2.40;;;2.90;99.90;;;;;;5063788;28;20044;-60
2023/03/07 02:59:40;;;;;;;14.70;2.10;;;2.90;99.90;;;;;;5066232;28;20128;-59
2023/03/07 03:02:06;;;;;;;10.73;1.83;;;2.90;99.90;;;;;;5081912;28;20103;-60
2023/03/07 03:04:32;;;;;;;12.93;2.17;;;2.90;99.90;;;;;;5086041;28;20048;-60
2023/03/07 03:06:57;;;;;;;12.32;2.88;;;2.90;99.90;;;;;;5066584;28;20114;-60
2023/03/07 03:09:23;;;;;;;18.17;2.00;;;3.00;99.90;;;;;;5074666;28;20032;-60
2023/03/07 03:11:49;;;;;;;11.98;1.90;;;2.90;99.90;;;;;;5067452;28;20048;-59
2023/03/07 03:14:14;;;;;;;10.95;2.58;;;2.90;99.90;;;;;;5065992;28;20043;-59
2023/03/07 03:16:41;;;;;;;11.27;1.85;;;2.90;99.90;;;;;;5077523;28;20073;-60
2023/03/07 03:19:06;;;;;;;10.32;1.77;;;2.90;99.90;;;;;;5085842;28;20336;-59
2023/03/07 03:21:32;;;;;;;11.77;2.10;;;2.90;99.90;;;;;;5068219;28;20045;-60
2023/03/07 03:23:57;;;;;;;10.55;1.92;;;2.90;99.90;;;;;;5080274;28;20464;-59
2023/03/07 03:26:23;;;;;;;13.18;2.05;;;2.90;99.90;;;;;;5064648;28;20477;-60
2023/03/07 03:28:49;;;;;;;14.48;2.17;;;2.80;99.90;;;;;;5065167;28;20485;-61
2023/03/07 03:31:15;;;;;;;12.82;1.85;;;2.80;99.90;;;;;;5064087;28;20049;-60
2023/03/07 03:33:42;;;;;;;14.32;2.55;;;2.80;99.90;;;;;;5063700;28;20044;-60
2023/03/07 03:36:12;;;;;;;22.63;2.65;;;2.80;99.90;;;;;;5065213;28;20564;-59
2023/03/07 03:38:38;;;;;;;16.73;2.60;;;2.80;99.90;;;;;;5063964;28;20037;-60
2023/03/07 03:41:06;;;;;;;19.73;1.92;;;2.80;99.90;;;;;;5065074;28;20880;-60
2023/03/07 03:43:33;;;;;;;19.17;2.17;;;2.80;99.90;;;;;;5065016;28;20040;-60
2023/03/07 03:45:58;;;;;;;10.43;1.90;;;2.80;99.90;;;;;;5073235;28;20036;-61
2023/03/07 03:48:25;;;;;;;14.95;2.08;;;2.80;99.90;;;;;;5080283;28;20051;-58
2023/03/07 03:51:03;;;;;;;18.42;2.15;;;2.80;99.90;;;;;;5065679;28;20686;-60
2023/03/07 03:53:30;;;;;;;12.88;1.85;;;2.70;99.90;;;;;;5063911;28;20040;-59
2023/03/07 03:56:04;;;;;;;12.48;1.65;;;2.70;99.90;;;;;;5073351;28;20043;-59
2023/03/07 03:58:30;;;;;;;15.20;2.22;;;2.70;99.90;;;;;;5084306;28;20052;-61
2023/03/07 04:00:56;;;;;;;11.15;1.95;;;2.70;99.90;;;;;;5083908;28;20115;-61
2023/03/07 04:03:22;;;;;;;14.05;2.05;;;2.70;99.90;;;;;;5083619;28;20119;-60
2023/03/07 04:05:47;;;;;;;14.80;2.00;;;2.70;99.90;;;;;;5075874;28;20061;-60
2023/03/07 04:08:13;;;;;;;13.43;1.65;;;2.70;99.90;;;;;;5063610;28;20111;-60
2023/03/07 04:10:39;;;;;;;13.70;2.00;;;2.70;99.90;;;;;;5066143;28;20048;-60
2023/03/07 04:13:04;;;;;;;15.02;2.30;;;2.60;99.90;;;;;;5064698;28;20708;-61
2023/03/07 04:15:30;;;;;;;11.20;1.70;;;2.60;99.90;;;;;;5066418;28;20632;-60
2023/03/07 04:17:56;;;;;;;11.35;2.15;;;2.60;99.90;;;;;;5085018;28;20121;-61
2023/03/07 04:20:21;;;;;;;11.18;1.80;;;2.50;99.90;;;;;;5060199;28;20123;-60
2023/03/07 04:22:47;;;;;;;8.35;1.85;;;2.50;99.90;;;;;;5064567;28;20040;-61
2023/03/07 04:25:12;;;;;;;12.40;1.80;;;2.50;99.90;;;;;;5062987;28;20045;-61
2023/03/07 04:27:38;;;;;;;14.90;1.60;;;2.50;99.90;;;;;;5063718;28;20141;-60
2023/03/07 04:30:04;;;;;;;11.00;2.20;;;2.50;99.90;;;;;;5064727;28;20087;-60
2023/03/07 04:32:30;;;;;;;11.57;2.13;;;2.40;99.90;;;;;;5064628;28;20044;-61
2023/03/07 04:34:55;;;;;;;8.57;1.63;;;2.50;99.90;;;;;;5062823;28;20040;-61
2023/03/07 04:37:21;;;;;;;24.08;2.58;;;2.40;99.90;;;;;;5063729;28;20048;-60
2023/03/07 04:39:47;;;;;;;15.90;3.22;;;2.40;99.90;;;;;;5063181;28;20049;-60
2023/03/07 04:42:12;;;;;;;12.07;2.03;;;2.30;99.90;;;;;;5063546;28;20257;-61
2023/03/07 04:44:38;;;;;;;17.70;2.05;;;2.40;99.90;;;;;;5063540;28;20509;-61
2023/03/07 04:47:03;;;;;;;16.52;2.00;;;2.30;99.90;;;;;;5077852;28;20659;-60
2023/03/07 04:49:29;;;;;;;16.25;2.17;;;2.40;99.90;;;;;;5082452;28;20040;-60
2023/03/07 04:51:54;;;;;;;14.25;2.53;;;2.40;99.90;;;;;;5065299;28;20040;-61
2023/03/07 04:54:20;;;;;;;14.95;2.22;;;2.40;99.90;;;;;;5062253;28;20127;-60
2023/03/07 04:56:45;;;;;;;10.93;2.30;;;2.40;99.90;;;;;;5063135;28;20079;-59
2023/03/07 04:59:11;;;;;;;18.00;2.00;;;2.40;99.90;;;;;;5064071;28;20581;-60
2023/03/07 05:01:37;;;;;;;13.50;1.73;;;2.40;99.90;;;;;;5064475;28;20399;-60
2023/03/07 05:04:02;;;;;;;18.40;1.98;;;2.40;99.90;;;;;;5064259;28;20135;-61
2023/03/07 05:06:28;;;;;;;14.15;2.97;;;2.40;99.90;;;;;;5063242;28;20055;-61
2023/03/07 05:08:53;;;;;;;17.83;2.35;;;2.40;99.90;;;;;;5062781;28;20063;-60
2023/03/07 05:11:19;;;;;;;11.38;1.95;;;2.40;99.90;;;;;;5071769;28;20044;-61
2023/03/07 05:13:44;;;;;;;12.98;2.33;;;2.40;99.90;;;;;;5078959;28;20044;-61
2023/03/07 05:16:10;;;;;;;19.10;2.00;;;2.50;99.90;;;;;;5066042;28;20071;-60
2023/03/07 05:18:36;;;;;;;16.17;1.98;;;2.50;99.90;;;;;;5063200;28;20032;-60
2023/03/07 05:21:01;;;;;;;9.82;2.13;;;2.50;99.90;;;;;;5063501;28;20044;-60
2023/03/07 05:23:27;;;;;;;13.82;2.13;;;2.50;99.90;;;;;;5062935;28;20531;-60
2023/03/07 05:25:53;;;;;;;10.05;1.70;;;2.50;99.90;;;;;;5063312;28;20044;-60
2023/03/07 05:28:18;;;;;;;14.13;2.35;;;2.50;99.90;;;;;;5062740;28;20609;-61
2023/03/07 05:30:45;;;;;;;13.45;1.88;;;2.50;99.90;;;;;;5063796;28;20127;-60
2023/03/07 05:33:11;;;;;;;16.42;2.17;;;2.50;99.90;;;;;;5063645;28;20032;-60
2023/03/07 05:35:38;;;;;;;13.80;1.85;;;2.60;99.90;;;;;;5079180;28;20038;-60
2023/03/07 05:38:03;;;;;;;14.90;1.80;;;2.60;99.90;;;;;;5063003;28;20036;-60
2023/03/07 05:40:29;;;;;;;13.05;1.52;;;2.60;99.90;;;;;;5071346;28;20090;-59
2023/03/07 05:42:54;;;;;;;17.50;2.42;;;2.60;99.90;;;;;;5062975;28;20093;-61
2023/03/07 05:45:20;;;;;;;12.10;2.05;;;2.60;99.90;;;;;;5063059;28;20037;-59
2023/03/07 05:47:46;;;;;;;10.70;1.92;;;2.60;99.90;;;;;;5061333;28;20492;-60
2023/03/07 05:50:12;;;;;;;19.55;2.42;;;2.60;99.90;;;;;;5061709;28;20052;-60
2023/03/07 05:52:38;;;;;;;13.48;1.83;;;2.70;99.90;;;;;;5063701;28;20033;-60
2023/03/07 05:55:05;;;;;;;12.20;2.03;;;2.70;99.90;;;;;;5063452;28;20029;-61
2023/03/07 05:57:31;;;;;;;12.45;3.13;;;2.70;99.90;;;;;;5082561;28;20108;-62
2023/03/07 05:59:56;;;;;;;11.98;1.95;;;2.70;99.90;;;;;;5083249;28;20051;-61
2023/03/07 06:02:22;;;;;;;18.08;2.17;;;2.70;99.90;;;;;;5080637;28;20048;-62
2023/03/07 06:04:47;;;;;;;10.50;1.88;;;2.70;99.90;;;;;;5083303;28;20550;-61
2023/03/07 06:07:13;;;;;;;15.20;2.50;;;2.70;99.90;;;;;;5061805;28;20646;-60
2023/03/07 06:09:38;;;;;;;15.10;1.75;;;2.70;99.90;;;;;;5061744;28;21129;-61
2023/03/07 06:12:04;;;;;;;13.15;2.45;;;2.60;99.90;;;;;;5062472;28;20041;-62
2023/03/07 06:14:31;;;;;;;10.13;1.90;;;2.60;99.90;;;;;;5063507;28;20072;-60
2023/03/07 06:16:56;;;;;;;14.55;2.30;;;2.60;99.90;;;;;;5062527;28;20773;-62
2023/03/07 06:19:22;;;;;;;10.85;1.70;;;2.60;99.90;;;;;;5062906;28;20115;-62
2023/03/07 06:21:48;;;;;;;9.98;2.40;;;2.60;99.90;;;;;;5062722;28;20036;-62
2023/03/07 06:24:13;;;;;;;11.50;1.58;;;2.60;99.90;;;;;;5061103;28;20048;-61
2023/03/07 06:26:39;;;;;;;10.38;1.92;;;2.60;99.90;;;;;;5080198;28;20043;-60
2023/03/07 06:29:04;;;;;;;11.88;1.80;;;2.60;99.90;;;;;;5083044;28;20066;-61
2023/03/07 06:31:30;;;;;;;12.52;2.00;;;2.60;99.90;;;;;;5072323;28;20124;-61
2023/03/07 06:33:55;;;;;;;8.73;1.85;;;2.60;99.90;;;;;;5062569;28;20036;-61
2023/03/07 06:36:21;;;;;;;9.63;1.55;;;2.60;99.90;;;;;;5061014;28;20075;-61
2023/03/07 06:38:47;;;;;;;15.65;1.80;;;2.60;99.90;;;;;;5061786;28;20048;-61
2023/03/07 06:41:13;;;;;;;17.55;2.38;;;2.60;99.90;;;;;;5070063;28;20040;-61
2023/03/07 06:43:38;;;;;;;10.55;1.92;;;2.70;99.90;;;;;;5068236;28;20036;-61
2023/03/07 06:46:06;;;;;;;13.88;1.70;;;2.60;99.90;;;;;;5080153;28;20040;-62
2023/03/07 06:48:33;;;;;;;12.52;1.85;;;2.70;99.90;;;;;;5085585;28;20080;-61
2023/03/07 06:50:59;;;;;;;10.95;1.70;;;2.70;99.90;;;;;;5083120;28;20039;-60
2023/03/07 06:53:25;;;;;;;9.90;1.77;;;2.70;99.90;;;;;;5085445;28;20078;-61
2023/03/07 06:55:51;;;;;;;10.07;1.88;;;2.70;99.90;;;;;;5083662;28;20562;-61
2023/03/07 06:58:17;;;;;;;14.48;2.15;;;2.70;99.90;;;;;;5086108;28;20050;-61
2023/03/07 07:00:43;;;;;;;13.50;2.35;;;2.70;99.90;;;;;;5076634;28;20040;-61
2023/03/07 07:03:15;;;;;;;11.57;1.90;;;2.80;99.90;;;;;;5065262;28;20626;-61
2023/03/07 07:05:41;;;;;;;11.45;1.35;;;2.80;99.90;;;;;;5066855;28;20754;-61
2023/03/07 07:08:07;;;;;;;10.68;2.00;;;2.80;99.90;;;;;;5066216;28;20119;-62
2023/03/07 07:10:32;;;;;;;10.00;1.73;;;2.80;99.90;;;;;;5069029;28;20392;-61
2023/03/07 07:12:58;;;;;;;10.95;1.65;;;2.80;99.90;;;;;;5086659;28;20050;-61
2023/03/07 07:15:24;;;;;;;13.38;1.75;;;2.80;99.90;;;;;;5085536;28;20036;-61
2023/03/07 07:17:51;;;;;;;11.73;1.88;;;2.80;99.90;;;;;;5082184;28;20115;-61
2023/03/07 07:20:17;;;;;;;15.15;1.60;;;2.80;99.90;;;;;;5074504;28;20036;-62
2023/03/07 07:22:42;;;;;;;12.02;1.77;;;2.80;99.90;;;;;;5065801;28;20040;-62
2023/03/07 07:25:09;;;;;;;7.88;1.20;;;2.80;99.90;;;;;;5064076;28;20097;-62
2023/03/07 07:27:35;;;;;;;12.60;1.58;;;2.80;99.90;;;;;;5065274;28;20045;-61
2023/03/07 07:30:02;;;;;;;7.70;1.35;;;2.80;99.90;;;;;;5065512;28;20040;-62
2023/03/07 07:32:28;;;;;;;12.25;1.73;;;2.80;99.90;;;;;;5065516;28;20044;-62
2023/03/07 07:34:53;;;;;;;9.43;1.10;;;2.80;99.90;;;;;;5065236;28;20094;-61
2023/03/07 07:37:19;;;;;;;10.20;1.50;;;2.80;99.90;;;;;;5065587;28;20041;-61
2023/03/07 07:39:44;;;;;;;13.05;1.58;;;2.80;99.90;;;;;;5063497;28;20494;-63
2023/03/07 07:42:11;;;;;;;7.05;1.33;;;2.80;99.90;;;;;;5083969;28;20093;-63
2023/03/07 07:44:36;;;;;;;16.77;1.60;;;2.80;99.90;;;;;;5085148;28;20040;-63
2023/03/07 07:47:02;;;;;;;7.07;1.48;;;2.80;99.90;;;;;;5070637;28;20116;-63
2023/03/07 07:49:28;;;;;;;10.32;1.50;;;2.80;99.90;;;;;;5063782;28;20059;-63
2023/03/07 07:51:53;;;;;;;8.43;1.42;;;2.80;99.90;;;;;;5064006;28;20127;-61
2023/03/07 07:54:19;;;;;;;17.83;1.65;;;2.80;99.90;;;;;;5064609;28;20509;-62
2023/03/07 07:56:45;;;;;;;12.88;1.40;;;2.80;99.90;;;;;;5064057;28;20558;-62
2023/03/07 07:59:11;;;;;;;10.85;1.35;;;2.80;99.90;;;;;;5065157;28;20040;-62
2023/03/07 08:01:37;;;;;;;10.25;1.60;;;2.80;99.90;;;;;;5072591;28;20049;-62
2023/03/07 08:04:02;;;;;;;7.05;1.60;;;2.80;99.90;;;;;;5064382;28;20070;-62
2023/03/07 08:06:28;;;;;;;7.95;1.20;;;2.80;99.90;;;;;;5076614;28;20040;-62
2023/03/07 08:08:54;;;;;;;6.03;1.45;;;2.80;99.90;;;;;;5078032;28;20614;-62
2023/03/07 08:11:21;;;;;;;9.00;1.25;;;2.80;99.90;;;;;;5071131;28;20598;-61
2023/03/07 08:13:46;;;;;;;11.55;1.35;;;2.90;99.90;;;;;;5064064;28;20588;-60
2023/03/07 08:16:14;;;;;;;9.07;1.42;;;2.90;99.90;;;;;;5064375;28;20046;-61
2023/03/07 08:18:41;;;;;;;10.10;1.40;;;2.90;99.90;;;;;;5063871;28;20055;-62
2023/03/07 08:21:07;;;;;;;8.45;1.50;;;3.00;99.90;;;;;;5063870;28;20046;-61
2023/03/07 08:23:34;;;;;;;9.25;1.70;;;3.00;99.90;;;;;;5063956;28;20080;-62
2023/03/07 08:26:05;;;;;;;8.55;1.70;;;3.00;99.90;;;;;;5064521;28;20165;-62
2023/03/07 08:28:31;;;;;;;8.98;1.42;;;3.10;99.90;;;;;;5064347;28;20040;-62
2023/03/07 08:30:57;;;;;;;9.00;1.30;;;3.20;99.90;;;;;;5065002;28;20033;-61
2023/03/07 08:33:23;;;;;;;9.43;1.20;;;3.20;99.90;;;;;;5064073;28;20042;-62
2023/03/07 08:35:48;;;;;;;6.18;1.00;;;3.30;99.90;;;;;;5071061;28;20038;-63
2023/03/07 08:38:14;;;;;;;8.70;2.00;;;3.30;99.90;;;;;;5082989;28;20067;-61
2023/03/07 08:40:40;;;;;;;6.85;1.30;;;3.30;99.90;;;;;;5074536;28;20377;-62
2023/03/07 08:43:05;;;;;;;8.23;1.60;;;3.40;99.90;;;;;;5062376;28;20733;-62
2023/03/07 08:45:31;;;;;;;8.93;1.50;;;3.50;99.90;;;;;;5062731;28;20055;-63
2023/03/07 08:47:57;;;;;;;8.65;1.77;;;3.50;99.90;;;;;;5063792;28;20560;-62
2023/03/07 08:50:26;;;;;;;9.18;1.75;;;3.50;99.90;;;;;;5062303;28;20109;-61
2023/03/07 08:52:52;;;;;;;8.30;1.23;;;3.50;99.90;;;;;;5062835;28;20072;-63
2023/03/07 08:55:19;;;;;;;8.90;1.15;;;3.50;99.90;;;;;;5062563;28;20091;-62
2023/03/07 08:57:46;;;;;;;5.53;1.10;;;3.50;99.90;;;;;;5063459;28;20638;-62
2023/03/07 09:00:12;;;;;;;11.52;1.70;;;3.50;99.90;;;;;;5063963;28;20541;-62
2023/03/07 09:02:38;;;;;;;9.60;1.52;;;3.50;99.90;;;;;;5062378;28;20731;-60
2023/03/07 09:05:04;;;;;;;8.68;1.55;;;3.50;99.90;;;;;;5062428;28;20040;-60
2023/03/07 09:07:30;;;;;;;7.93;1.27;;;3.50;99.90;;;;;;5063230;28;20044;-61
2023/03/07 09:09:55;;;;;;;10.63;1.55;;;3.40;99.90;;;;;;5071133;28;20043;-61
2023/03/07 09:12:21;;;;;;;10.80;1.33;;;3.40;99.90;;;;;;5062028;28;20788;-62
2023/03/07 09:14:46;;;;;;;12.52;1.83;;;3.30;99.90;;;;;;5063745;28;20079;-61
2023/03/07 09:17:12;;;;;;;7.05;1.27;;;3.20;99.90;;;;;;5063493;28;20128;-62
2023/03/07 09:19:38;;;;;;;12.68;1.88;;;3.00;99.90;;;;;;5063250;28;20463;-62
2023/03/07 09:22:03;;;;;;;9.57;1.40;;;3.00;99.90;;;;;;5062171;28;20071;-62
2023/03/07 09:24:29;;;;;;;11.80;1.55;;;2.90;99.90;;;;;;5062014;28;20450;-63
2023/03/07 09:26:55;;;;;;;14.25;1.60;;;2.90;99.90;;;;;;5079349;28;20036;-63
2023/03/07 09:29:21;;;;;;;12.32;1.52;;;2.90;99.90;;;;;;5083733;28;20654;-62
2023/03/07 09:31:46;;;;;;;11.77;1.70;;;2.90;99.90;;;;;;5071648;28;20036;-63
2023/03/07 09:34:12;;;;;;;9.98;2.05;;;2.80;99.90;;;;;;5062055;28;20041;-62
2023/03/07 09:36:38;;;;;;;11.88;1.42;;;2.80;99.90;;;;;;5076139;28;20043;-61
2023/03/07 09:39:04;;;;;;;10.88;1.92;;;2.70;99.90;;;;;;5076596;28;20036;-62
2023/03/07 09:41:47;;;;;;;5.97;1.10;;;2.70;99.90;;;;;;5071887;28;20116;-62
2023/03/07 09:44:43;;;;;;;9.50;1.48;;;2.60;99.90;;;;;;5079314;28;20140;-61
2023/03/07 09:47:52;;;;;;;12.15;1.58;;;2.50;99.90;;;;;;5062214;28;20056;-63
2023/03/07 09:50:36;;;;;;;17.10;2.17;;;2.50;99.90;;;;;;5061875;28;20048;-62
2023/03/07 09:53:03;;;;;;;16.27;2.25;;;2.50;99.90;;;;;;5063752;28;20048;-62
2023/03/07 09:55:30;;;;;;;12.57;1.50;;;2.60;99.90;;;;;;5061652;28;20072;-62
2023/03/07 09:58:02;;;;;;;9.73;1.40;;;2.70;99.90;;;;;;5062839;28;20087;-61
2023/03/07 10:00:44;;;;;;;14.02;1.92;;;2.90;99.90;;;;;;5061973;28;20061;-62
2023/03/07 10:03:25;;;;;;;11.00;1.70;;;3.00;99.90;;;;;;5062391;28;20040;-62
2023/03/07 10:05:54;;;;;;;12.63;1.75;;;3.00;99.90;;;;;;5062892;28;20036;-62
2023/03/07 10:08:31;;;;;;;15.43;2.05;;;3.10;99.90;;;;;;5064542;28;20048;-62
2023/03/07 10:11:23;;;;;;;12.45;1.85;;;3.10;99.90;;;;;;5073220;28;20094;-62
2023/03/07 10:14:05;;;;;;;9.75;1.92;;;3.20;99.90;;;;;;5061107;28;20514;-62
2023/03/07 10:16:42;;;;;;;8.23;1.55;;;3.20;99.90;;;;;;5073450;28;20404;-61
2023/03/07 10:19:20;;;;;;;11.35;2.03;;;3.30;99.90;;;;;;5066402;28;20120;-62
2023/03/07 10:22:15;;;;;;;13.63;1.65;;;3.40;99.90;;;;;;5070946;28;20087;-63
2023/03/07 10:25:18;;;;;;;13.18;2.13;;;3.50;99.90;;;;;;5065311;28;20071;-62
2023/03/07 10:27:46;;;;;;;14.85;2.10;;;3.60;99.90;;;;;;5066123;28;20587;-62
2023/03/07 10:30:21;;;;;;;13.23;2.03;;;3.90;99.90;;;;;;5066869;28;20048;-62
2023/03/07 10:32:57;;;;;;;12.07;1.90;;;4.10;99.90;;;;;;5066753;28;20044;-63
2023/03/07 10:35:41;;;;;;;11.68;2.08;;;4.20;99.90;;;;;;5065231;28;20055;-61
2023/03/07 10:38:32;;;;;;;12.93;2.13;;;4.40;99.90;;;;;;5065266;28;20059;-62
2023/03/07 10:41:20;;;;;;;13.45;1.83;;;4.60;99.90;;;;;;5065360;28;20041;-62
2023/03/07 10:43:48;;;;;;;15.73;2.38;;;4.80;99.90;;;;;;5066075;28;20762;-62
2023/03/07 10:46:17;;;;;;;14.30;1.60;;;5.00;99.90;;;;;;5067043;28;20059;-62
2023/03/07 10:48:48;;;;;;;12.48;1.98;;;5.10;99.90;;;;;;5066268;28;20332;-62
2023/03/07 10:51:32;;;;;;;9.07;1.70;;;5.10;99.90;;;;;;5065552;28;20052;-62
2023/03/07 10:53:59;;;;;;;11.25;1.55;;;5.00;99.90;;;;;;5065534;28;20045;-62
2023/03/07 10:56:24;;;;;;;10.20;2.13;;;5.00;99.90;;;;;;5063841;28;20032;-62
2023/03/07 10:59:04;;;;;;;9.43;1.60;;;5.00;99.90;;;;;;5064438;28;20647;-63
2023/03/07 11:01:32;;;;;;;12.80;1.92;;;5.10;99.90;;;;;;5067461;28;20080;-63
2023/03/07 11:04:05;;;;;;;10.18;1.90;;;5.30;99.90;;;;;;5064766;28;20094;-63
2023/03/07 11:06:33;;;;;;;11.38;2.28;;;5.30;99.90;;;;;;5066064;28;20048;-62
2023/03/07 11:09:15;;;;;;;10.38;1.90;;;5.50;99.90;;;;;;5070472;28;20506;-63
2023/03/07 11:11:51;;;;;;;12.82;2.10;;;5.80;99.90;;;;;;5069192;28;20052;-61
2023/03/07 11:14:17;;;;;;;8.18;1.38;;;5.90;99.90;;;;;;5066527;28;20063;-63
2023/03/07 11:16:59;;;;;;;11.23;1.67;;;5.90;99.90;;;;;;5064491;28;20039;-62
2023/03/07 11:19:34;;;;;;;10.43;1.63;;;5.90;99.90;;;;;;5064151;28;20120;-62
2023/03/07 11:22:15;;;;;;;9.38;1.65;;;5.90;99.90;;;;;;5064920;28;20509;-62
2023/03/07 11:25:00;;;;;;;14.20;1.98;;;5.80;99.90;;;;;;5064678;28;20067;-62
2023/03/07 11:27:48;;;;;;;8.65;1.70;;;5.90;99.90;;;;;;5064060;28;20041;-63
2023/03/07 11:30:28;;;;;;;10.57;1.90;;;6.00;99.90;;;;;;5064647;28;20123;-62
2023/03/07 11:33:06;;;;;;;15.52;2.90;;;5.90;98.80;;;;;;5085864;28;20047;-63
2023/03/07 11:35:34;;;;;;;11.82;1.85;;;6.00;99.90;;;;;;5082896;28;20039;-63
2023/03/07 11:38:08;;;;;;;9.77;1.90;;;6.10;99.90;;;;;;5086094;28;20491;-61
2023/03/07 11:40:40;;;;;;;14.60;2.20;;;6.10;99.90;;;;;;5065751;28;20089;-63
2023/03/07 11:43:19;;;;;;;12.45;2.28;;;6.20;99.90;;;;;;5065234;28;20094;-64
2023/03/07 11:46:00;;;;;;;12.43;1.70;;;6.10;98.80;;;;;;5064567;28;20051;-63
2023/03/07 11:48:43;;;;;;;8.23;1.75;;;6.20;99.90;;;;;;5065238;28;20536;-63
2023/03/07 11:51:23;;;;;;;10.85;1.67;;;6.40;99.80;;;;;;5064033;28;20117;-61
2023/03/07 11:54:12;;;;;;;9.93;1.85;;;6.50;97.20;;;;;;5064519;28;20098;-62
2023/03/07 11:56:45;;;;;;;13.73;2.45;;;6.70;98.50;;;;;;5076405;28;20056;-59
2023/03/07 11:59:27;;;;;;;13.80;2.05;;;6.80;97.70;;;;;;5071302;28;20044;-63
2023/03/07 12:01:57;;;;;;;8.25;1.70;;;6.90;97.40;;;;;;5063599;28;20152;-63
2023/03/07 12:04:51;;;;;;;7.57;1.48;;;6.60;97.60;;;;;;5063264;28;20048;-61
2023/03/07 12:07:35;;;;;;;8.13;1.38;;;5.90;98.70;;;;;;5063332;28;20058;-63
2023/03/07 12:10:27;;;;;;;14.27;2.65;;;5.20;99.90;;;;;;5076447;28;20051;-62
2023/03/07 12:13:28;;;;;;;13.38;1.52;;;4.70;99.90;;;;;;5064699;28;20061;-62
2023/03/07 12:16:21;;;;;;;13.57;1.85;;;4.50;99.90;;;;;;5063349;28;20071;-63
2023/03/07 12:19:22;;;;;;;11.30;1.48;;;4.40;99.90;;;;;;5063508;28;20062;-62
2023/03/07 12:22:01;;;;;;;9.40;1.85;;;4.20;99.90;;;;;;5063119;28;20077;-63
2023/03/07 12:25:04;;;;;;;10.32;1.48;;;4.10;99.90;;;;;;5062017;28;20551;-62
2023/03/07 12:28:03;;;;;;;7.30;1.40;;;4.10;99.90;;;;;;5051338;28;20048;-62
2023/03/07 12:30:36;;;;;;;7.40;2.10;;;4.20;99.90;;;;;;5066371;28;20788;-62
2023/03/07 12:33:04;;;;;;;7.47;1.27;;;4.50;99.90;;;;;;5064581;28;20070;-63
2023/03/07 12:35:46;;;;;;;8.35;1.55;;;4.70;99.90;;;;;;5072492;28;20643;-62
2023/03/07 12:38:41;;;;;;;13.68;1.40;;;4.90;99.90;;;;;;5080628;28;20036;-63
2023/03/07 12:41:26;;;;;;;11.80;1.40;;;5.00;99.90;;;;;;5063669;28;20119;-62
2023/03/07 12:44:02;;;;;;;9.75;1.27;;;5.20;99.90;;;;;;5064119;28;20968;-64
2023/03/07 12:46:50;;;;;;;8.23;1.70;;;5.30;99.90;;;;;;5071915;28;20093;-63
2023/03/07 12:49:32;;;;;;;9.48;1.48;;;5.30;99.40;;;;;;5084734;28;20086;-63
2023/03/07 12:52:01;;;;;;;7.47;1.48;;;5.40;99.90;;;;;;5083275;28;20131;-63
2023/03/07 12:54:35;;;;;;;7.85;1.58;;;5.50;99.90;;;;;;5077969;28;20051;-63
2023/03/07 12:57:25;;;;;;;10.82;1.65;;;5.50;99.90;;;;;;5063473;28;20114;-63
2023/03/07 12:59:55;;;;;;;10.20;1.48;;;5.50;99.80;;;;;;5081942;28;20079;-63
2023/03/07 13:02:38;;;;;;;8.15;1.25;;;5.40;98.70;;;;;;5082105;28;20655;-63